createdAt,value
2024-01-24T00:02:05.303Z,99414.03
2024-01-24T00:04:32.049Z,99428.75
2024-01-24T00:06:58.750Z,99433.97
2024-01-24T00:09:25.646Z,99467.75
2024-01-24T00:11:52.472Z,99435.69
2024-01-24T00:14:19.213Z,99453.84
2024-01-24T00:16:45.913Z,99459.06
2024-01-24T00:19:12.658Z,99475.47
2024-01-24T00:21:40.219Z,99493.66
2024-01-24T00:24:07.099Z,99512.78
2024-01-24T00:26:34.360Z,99499.81
2024-01-24T00:29:01.090Z,99489.50
2024-01-24T00:31:27.912Z,99503.41
2024-01-24T00:33:54.731Z,99495.69
2024-01-24T00:36:21.553Z,99486.22
2024-01-24T00:38:48.327Z,99507.03
2024-01-24T00:41:15.134Z,99514.03
2024-01-24T00:43:43.148Z,99516.75
2024-01-24T00:46:10.368Z,99525.41
2024-01-24T00:48:37.253Z,99544.47
2024-01-24T00:51:04.612Z,99542.75
2024-01-24T00:53:34.860Z,99563.53
2024-01-24T00:56:01.697Z,99552.28
2024-01-24T00:58:28.410Z,99546.28
2024-01-24T01:00:55.283Z,99535.03
2024-01-24T01:03:22.343Z,99547.22
2024-01-24T01:05:49.054Z,99523.00
2024-01-24T01:08:15.956Z,99545.59
2024-01-24T01:10:43.340Z,99531.75
2024-01-24T01:13:10.024Z,99527.47
2024-01-24T01:15:36.762Z,99563.84
2024-01-24T01:18:03.727Z,99564.72
2024-01-24T01:20:30.814Z,99548.28
2024-01-24T01:22:57.492Z,99524.06
2024-01-24T01:25:24.178Z,99527.59
2024-01-24T01:27:50.961Z,99547.53
2024-01-24T01:30:17.869Z,99562.31
2024-01-24T01:32:44.684Z,99587.44
2024-01-24T01:35:11.504Z,99583.13
2024-01-24T01:37:39.372Z,99585.72
2024-01-24T01:40:07.944Z,99591.78
2024-01-24T01:42:34.702Z,99607.38
2024-01-24T01:45:01.493Z,99601.31
2024-01-24T01:47:28.627Z,99592.66
2024-01-24T01:49:55.626Z,99604.78
2024-01-24T01:52:24.011Z,99633.34
2024-01-24T01:54:52.324Z,99616.03
2024-01-24T01:57:19.232Z,99642.00
2024-01-24T01:59:46.545Z,99635.94
2024-01-24T02:02:14.476Z,99627.31
2024-01-24T02:04:41.237Z,99629.94
2024-01-24T02:07:08.219Z,99636.91
2024-01-24T02:09:35.677Z,99632.63
2024-01-24T02:12:02.436Z,99660.34
2024-01-24T02:14:29.635Z,99645.66
2024-01-24T02:16:56.346Z,99666.44
2024-01-24T02:19:23.429Z,99654.31
2024-01-24T02:21:50.217Z,99675.94
2024-01-24T02:24:17.129Z,99650.84
2024-01-24T02:26:44.212Z,99688.94
2024-01-24T02:29:12.905Z,99688.09
2024-01-24T02:31:39.683Z,99696.78
2024-01-24T02:34:06.534Z,99717.56
2024-01-24T02:36:33.357Z,99723.63
2024-01-24T02:39:00.060Z,99722.72
2024-01-24T02:41:26.736Z,99738.28
2024-01-24T02:43:53.494Z,99749.50
2024-01-24T02:46:20.185Z,99746.91
2024-01-24T02:48:47.035Z,99751.22
2024-01-24T02:51:23.572Z,99758.13
2024-01-24T02:53:50.258Z,99758.13
2024-01-24T02:56:17.021Z,99778.91
2024-01-24T02:58:43.731Z,99783.25
2024-01-24T03:01:12.488Z,99784.97
2024-01-24T03:03:40.872Z,99791.03
2024-01-24T03:06:08.034Z,99795.38
2024-01-24T03:08:56.218Z,99792.78
2024-01-24T03:11:23.102Z,99797.09
2024-01-24T03:13:49.843Z,99790.19
2024-01-24T03:16:17.955Z,99784.97
2024-01-24T03:18:45.047Z,99823.91
2024-01-24T03:21:16.877Z,99821.31
2024-01-24T03:23:43.676Z,99811.78
2024-01-24T03:26:10.578Z,99829.09
2024-01-24T03:28:37.346Z,99829.97
2024-01-24T03:31:04.107Z,99816.09
2024-01-24T03:33:31.090Z,99818.69
2024-01-24T03:35:58.030Z,99831.69
2024-01-24T03:38:24.736Z,99845.50
2024-01-24T03:40:51.480Z,99842.91
2024-01-24T03:43:18.205Z,99856.75
2024-01-24T03:45:45.103Z,99844.66
2024-01-24T03:48:12.120Z,99858.50
2024-01-24T03:50:39.457Z,99881.00
2024-01-24T03:53:06.448Z,99862.84
2024-01-24T03:55:33.173Z,99875.81
2024-01-24T03:58:00.047Z,99889.66
2024-01-24T04:00:28.960Z,99893.13
2024-01-24T04:02:55.757Z,99907.84
2024-01-24T04:05:22.711Z,99895.75
2024-01-24T04:07:49.398Z,99905.28
2024-01-24T04:10:17.337Z,99926.00
2024-01-24T04:12:44.217Z,99909.59
2024-01-24T04:15:11.075Z,99923.44
2024-01-24T04:17:37.930Z,99935.56
2024-01-24T04:20:05.364Z,99950.28
2024-01-24T04:22:32.041Z,99958.91
2024-01-24T04:24:58.814Z,99967.56
2024-01-24T04:27:25.602Z,99967.56
2024-01-24T04:29:52.296Z,99994.38
2024-01-24T04:32:19.215Z,99992.63
2024-01-24T04:34:46.274Z,99996.94
2024-01-24T04:37:13.125Z,99996.09
2024-01-24T04:39:39.924Z,100019.44
2024-01-24T04:42:12.307Z,100012.53
2024-01-24T04:44:43.543Z,100028.94
2024-01-24T04:47:10.596Z,100023.75
2024-01-24T04:49:44.631Z,100038.47
2024-01-24T04:52:13.163Z,100047.97
2024-01-24T04:54:39.924Z,100049.72
2024-01-24T04:57:06.709Z,100041.94
2024-01-24T04:59:42.509Z,100079.13
2024-01-24T05:02:16.162Z,100067.88
2024-01-24T05:04:42.959Z,100086.91
2024-01-24T05:07:11.088Z,100102.47
2024-01-24T05:09:37.868Z,100125.84
2024-01-24T05:12:04.997Z,100123.25
2024-01-24T05:14:31.734Z,100143.13
2024-01-24T05:16:58.451Z,100153.53
2024-01-24T05:19:25.407Z,100161.31
2024-01-24T05:21:52.215Z,100158.72
2024-01-24T05:24:18.945Z,100152.66
2024-01-24T05:26:47.680Z,100167.38
2024-01-24T05:29:14.578Z,100148.34
2024-01-24T05:31:41.345Z,100138.84
2024-01-24T05:34:09.457Z,100134.53
2024-01-24T05:36:37.376Z,100150.94
2024-01-24T05:39:08.636Z,100179.47
2024-01-24T05:41:37.025Z,100201.09
2024-01-24T05:44:04.334Z,100184.66
2024-01-24T05:46:31.487Z,100182.09
2024-01-24T05:48:59.771Z,100206.28
2024-01-24T05:51:26.779Z,100206.28
2024-01-24T05:53:53.506Z,100175.16
2024-01-24T05:56:20.812Z,100181.22
2024-01-24T05:58:48.146Z,100194.19
2024-01-24T06:01:14.975Z,100225.31
2024-01-24T06:03:42.871Z,100250.38
2024-01-24T06:06:10.038Z,100260.75
2024-01-24T06:08:38.209Z,100241.75
2024-01-24T06:11:05.857Z,100241.75
2024-01-24T06:13:32.849Z,100261.63
2024-01-24T06:15:59.755Z,100246.94
2024-01-24T06:18:26.584Z,100265.09
2024-01-24T06:20:53.436Z,100276.31
2024-01-24T06:23:20.109Z,100293.59
2024-01-24T06:25:46.853Z,100304.84
2024-01-24T06:28:14.368Z,100309.16
2024-01-24T06:30:41.354Z,100342.88
2024-01-24T06:33:08.656Z,100298.78
2024-01-24T06:35:35.469Z,100276.31
2024-01-24T06:38:02.706Z,100288.41
2024-01-24T06:40:29.536Z,100291.88
2024-01-24T06:42:56.337Z,100301.38
2024-01-24T06:45:23.144Z,100309.16
2024-01-24T06:47:51.477Z,100313.47
2024-01-24T06:50:19.266Z,100322.13
2024-01-24T06:52:46.847Z,100331.63
2024-01-24T06:55:14.915Z,100348.91
2024-01-24T06:57:41.966Z,100350.59
2024-01-24T07:00:09.942Z,100354.91
2024-01-24T07:02:37.801Z,100362.69
2024-01-24T07:05:05.250Z,100390.31
2024-01-24T07:07:32.458Z,100399.81
2024-01-24T07:09:59.327Z,100406.72
2024-01-24T07:12:26.151Z,100406.72
2024-01-24T07:14:53.652Z,100421.41
2024-01-24T07:17:21.409Z,100436.94
2024-01-24T07:19:48.913Z,100433.47
2024-01-24T07:22:17.760Z,100436.91
2024-01-24T07:24:48.386Z,100438.63
2024-01-24T07:27:15.311Z,100420.50
2024-01-24T07:29:42.333Z,100416.16
2024-01-24T07:32:09.053Z,100429.09
2024-01-24T07:34:37.324Z,100441.19
2024-01-24T07:37:04.928Z,100446.34
2024-01-24T07:39:32.177Z,100437.69
2024-01-24T07:41:59.025Z,100482.59
2024-01-24T07:44:25.863Z,100484.31
2024-01-24T07:46:52.954Z,100499.84
2024-01-24T07:49:20.119Z,100508.47
2024-01-24T07:51:50.378Z,100519.66
2024-01-24T07:54:21.344Z,100537.75
2024-01-24T07:56:48.887Z,100535.13
2024-01-24T07:59:17.843Z,100525.59
2024-01-24T08:01:51.017Z,100499.69
2024-01-24T08:04:19.050Z,100481.56
2024-01-24T08:06:49.009Z,100510.88
2024-01-24T08:09:19.216Z,100514.31
2024-01-24T08:11:46.180Z,100530.72
2024-01-24T08:14:13.755Z,100534.97
2024-01-24T08:16:40.567Z,100549.63
2024-01-24T08:19:07.487Z,100551.34
2024-01-24T08:21:34.957Z,100548.75
2024-01-24T08:24:01.649Z,100560.81
2024-01-24T08:26:28.407Z,100575.50
2024-01-24T08:28:55.338Z,100580.69
2024-01-24T08:31:22.084Z,100597.94
2024-01-24T08:33:51.521Z,100598.78
2024-01-24T08:36:20.470Z,100593.63
2024-01-24T08:38:47.449Z,100607.44
2024-01-24T08:41:14.491Z,100598.78
2024-01-24T08:43:41.239Z,100615.19
2024-01-24T08:46:07.981Z,100623.78
2024-01-24T08:48:34.786Z,100622.94
2024-01-24T08:51:01.701Z,100638.47
2024-01-24T08:53:28.437Z,100638.47
2024-01-24T08:55:56.165Z,100633.34
2024-01-24T08:58:23.133Z,100635.91
2024-01-24T09:00:51.799Z,100623.84
2024-01-24T09:03:20.244Z,100638.53
2024-01-24T09:05:47.749Z,100642.00
2024-01-24T09:08:14.612Z,100639.44
2024-01-24T09:10:41.486Z,100647.25
2024-01-24T09:13:08.341Z,100646.44
2024-01-24T09:15:35.814Z,100663.72
2024-01-24T09:18:02.844Z,100675.00
2024-01-24T09:20:29.893Z,100656.91
2024-01-24T09:22:56.861Z,100682.84
2024-01-24T09:25:23.851Z,100685.44
2024-01-24T09:27:50.806Z,100687.22
2024-01-24T09:30:18.080Z,100698.44
2024-01-24T09:32:45.042Z,100716.63
2024-01-24T09:35:12.205Z,100723.56
2024-01-24T09:37:39.201Z,100727.91
2024-01-24T09:40:07.954Z,100728.81
2024-01-24T09:42:44.712Z,100735.75
2024-01-24T09:45:12.150Z,100762.56
2024-01-24T09:47:39.025Z,100756.53
2024-01-24T09:50:07.350Z,100757.44
2024-01-24T09:52:34.996Z,100760.00
2024-01-24T09:55:06.126Z,100770.38
2024-01-24T09:57:34.765Z,100779.91
2024-01-24T10:00:02.350Z,100798.06
2024-01-24T10:02:29.383Z,100798.06
2024-01-24T10:04:58.843Z,100788.59
2024-01-24T10:07:28.005Z,100797.25
2024-01-24T10:10:10.264Z,100802.47
2024-01-24T10:12:37.768Z,100780.91
2024-01-24T10:15:05.008Z,100781.75
2024-01-24T10:17:32.220Z,100787.00
2024-01-24T10:20:02.550Z,100795.66
2024-01-24T10:22:29.429Z,100788.75
2024-01-24T10:24:56.460Z,100771.50
2024-01-24T10:27:24.366Z,100769.78
2024-01-24T10:29:54.013Z,100759.44
2024-01-24T10:32:21.862Z,100763.78
2024-01-24T10:34:51.379Z,100779.34
2024-01-24T10:37:19.981Z,100783.69
2024-01-24T10:39:49.345Z,100796.69
2024-01-24T10:42:19.331Z,100794.13
2024-01-24T10:44:51.183Z,100795.84
2024-01-24T10:47:18.970Z,100803.66
2024-01-24T10:49:48.149Z,100806.25
2024-01-24T10:52:16.550Z,100807.13
2024-01-24T10:54:46.185Z,100808.88
2024-01-24T10:57:16.144Z,100837.41
2024-01-24T10:59:45.387Z,100841.78
2024-01-24T11:02:12.344Z,100844.38
2024-01-24T11:04:40.488Z,100843.53
2024-01-24T11:07:13.087Z,100847.88
2024-01-24T11:09:57.692Z,100845.28
2024-01-24T11:12:24.600Z,100846.19
2024-01-24T11:14:52.652Z,100841.00
2024-01-24T11:17:21.278Z,100847.94
2024-01-24T11:19:48.196Z,100852.28
2024-01-24T11:22:29.847Z,100858.34
2024-01-24T11:24:59.931Z,100858.34
2024-01-24T11:27:26.789Z,100877.38
2024-01-24T11:29:55.506Z,100894.72
2024-01-24T11:32:56.460Z,100872.28
2024-01-24T11:35:26.256Z,100873.19
2024-01-24T11:38:08.279Z,100868.88
2024-01-24T11:40:44.731Z,100887.06
2024-01-24T11:43:27.866Z,100874.97
2024-01-24T11:45:56.125Z,100876.72
2024-01-24T11:48:28.255Z,100885.41
2024-01-24T11:51:00.424Z,100890.59
2024-01-24T11:53:28.215Z,100887.16
2024-01-24T11:55:59.542Z,100886.31
2024-01-24T11:58:27.942Z,100870.72
2024-01-24T12:00:56.054Z,100868.16
2024-01-24T12:03:23.724Z,100846.53
2024-01-24T12:05:51.237Z,100855.19
2024-01-24T12:08:18.414Z,100854.34
2024-01-24T12:10:45.521Z,100867.38
2024-01-24T12:13:13.917Z,100868.28
2024-01-24T12:15:43.303Z,100852.72
2024-01-24T12:18:11.968Z,100857.91
2024-01-24T12:20:39.879Z,100876.09
2024-01-24T12:23:07.786Z,100879.56
2024-01-24T12:25:34.546Z,100868.31
2024-01-24T12:28:02.737Z,100864.84
2024-01-24T12:30:36.152Z,100861.38
2024-01-24T12:33:04.718Z,100857.91
2024-01-24T12:35:32.998Z,100863.94
2024-01-24T12:38:03.791Z,100882.13
2024-01-24T12:40:33.162Z,100876.09
2024-01-24T12:43:01.108Z,100876.09
2024-01-24T12:45:28.668Z,100863.97
2024-01-24T12:47:56.426Z,100865.69
2024-01-24T12:50:23.976Z,100861.38
2024-01-24T12:52:50.900Z,100857.94
2024-01-24T12:55:18.049Z,100846.69
2024-01-24T12:57:45.952Z,100846.72
2024-01-24T13:00:13.696Z,100844.13
2024-01-24T13:02:41.223Z,100860.56
2024-01-24T13:05:09.034Z,100867.56
2024-01-24T13:07:38.132Z,100871.88
2024-01-24T13:10:07.536Z,100872.75
2024-01-24T13:12:35.158Z,100873.56
2024-01-24T13:15:04.696Z,100880.47
2024-01-24T13:17:31.496Z,100892.56
2024-01-24T13:19:58.275Z,100884.78
2024-01-24T13:22:24.992Z,100897.78
2024-01-24T13:24:55.130Z,100877.84
2024-01-24T13:27:22.618Z,100876.97
2024-01-24T13:29:49.524Z,100896.88
2024-01-24T13:32:16.599Z,100890.81
2024-01-24T13:34:43.543Z,100883.91
2024-01-24T13:37:10.616Z,100899.50
2024-01-24T13:39:38.177Z,100900.38
2024-01-24T13:42:07.200Z,100897.75
2024-01-24T13:44:34.304Z,100902.09
2024-01-24T13:47:01.090Z,100893.44
2024-01-24T13:49:27.858Z,100895.16
2024-01-24T13:51:54.782Z,100896.88
2024-01-24T13:54:22.229Z,100905.53
2024-01-24T13:56:50.244Z,100909.81
2024-01-24T13:59:17.062Z,100922.78
2024-01-24T14:01:46.321Z,100928.84
2024-01-24T14:04:25.098Z,100945.22
2024-01-24T14:06:52.372Z,100955.59
2024-01-24T14:09:19.660Z,100965.09
2024-01-24T14:11:48.657Z,100971.19
2024-01-24T14:14:16.151Z,100966.00
2024-01-24T14:16:43.299Z,100961.66
2024-01-24T14:19:10.230Z,100963.41
2024-01-24T14:21:37.225Z,100973.78
2024-01-24T14:24:04.361Z,100963.34
2024-01-24T14:26:31.588Z,100990.16
2024-01-24T14:28:59.898Z,100997.94
2024-01-24T14:31:26.790Z,100977.16
2024-01-24T14:33:53.652Z,100979.81
2024-01-24T14:36:20.468Z,100970.28
2024-01-24T14:38:47.298Z,100969.44
2024-01-24T14:41:14.622Z,100961.66
2024-01-24T14:43:41.340Z,100968.59
2024-01-24T14:46:08.143Z,100984.19
2024-01-24T14:48:35.075Z,100985.88
2024-01-24T14:51:01.863Z,100972.88
2024-01-24T14:53:28.631Z,100971.97
2024-01-24T14:55:55.293Z,100966.72
2024-01-24T14:58:21.978Z,100966.66
2024-01-24T15:00:48.924Z,100956.28
2024-01-24T15:03:16.286Z,100944.09
2024-01-24T15:05:43.856Z,100938.03
2024-01-24T15:08:10.830Z,100948.38
2024-01-24T15:10:37.554Z,100958.78
2024-01-24T15:13:04.640Z,100960.47
2024-01-24T15:15:32.977Z,100967.44
2024-01-24T15:17:59.847Z,100966.56
2024-01-24T15:20:27.065Z,100976.94
2024-01-24T15:22:53.912Z,100989.06
2024-01-24T15:25:21.170Z,100988.22
2024-01-24T15:27:47.979Z,100998.59
2024-01-24T15:30:15.192Z,100983.91
2024-01-24T15:32:41.915Z,100995.16
2024-01-24T15:35:09.011Z,100997.75
2024-01-24T15:37:35.855Z,101006.38
2024-01-24T15:40:08.166Z,101003.78
2024-01-24T15:42:42.950Z,101012.41
2024-01-24T15:45:11.434Z,101023.59
2024-01-24T15:47:38.726Z,101044.34
2024-01-24T15:50:06.047Z,101044.31
2024-01-24T15:52:32.907Z,101037.38
2024-01-24T15:55:01.289Z,101044.22
2024-01-24T15:57:28.238Z,101039.88
2024-01-24T15:59:55.573Z,101045.06
2024-01-24T16:02:22.565Z,101038.94
2024-01-24T16:04:49.525Z,101044.09
2024-01-24T16:07:17.536Z,101041.47
2024-01-24T16:09:44.492Z,101035.38
2024-01-24T16:12:13.787Z,101030.16
2024-01-24T16:14:41.821Z,101037.00
2024-01-24T16:17:11.490Z,101036.97
2024-01-24T16:19:38.801Z,101040.41
2024-01-24T16:22:05.934Z,101030.84
2024-01-24T16:24:32.752Z,101036.00
2024-01-24T16:26:59.594Z,101035.94
2024-01-24T16:29:26.291Z,101046.25
2024-01-24T16:31:53.094Z,101040.16
2024-01-24T16:34:21.127Z,101035.78
2024-01-24T16:36:47.957Z,101034.84
2024-01-24T16:39:14.877Z,101040.88
2024-01-24T16:41:41.627Z,101028.69
2024-01-24T16:44:08.330Z,101028.59
2024-01-24T16:46:35.170Z,101017.31
2024-01-24T16:49:01.919Z,101036.25
2024-01-24T16:51:28.858Z,101032.72
2024-01-24T16:53:55.954Z,101030.91
2024-01-24T16:56:23.576Z,101036.06
2024-01-24T16:58:50.217Z,101027.34
2024-01-24T17:01:17.050Z,101030.72
2024-01-24T17:03:45.864Z,101042.78
2024-01-24T17:06:12.710Z,101041.84
2024-01-24T17:08:39.451Z,101046.91
2024-01-24T17:11:06.168Z,101051.16
2024-01-24T17:13:32.952Z,101061.47
2024-01-24T17:15:59.952Z,101067.44
2024-01-24T17:18:27.730Z,101057.03
2024-01-24T17:20:55.157Z,101067.34
2024-01-24T17:23:23.791Z,101069.88
2024-01-24T17:25:50.480Z,101068.13
2024-01-24T17:28:19.670Z,101064.56
2024-01-24T17:30:47.311Z,101077.44
2024-01-24T17:33:14.428Z,101077.41
2024-01-24T17:35:42.754Z,101073.91
2024-01-24T17:38:09.520Z,101086.78
2024-01-24T17:40:36.349Z,101079.84
2024-01-24T17:43:03.376Z,101078.09
2024-01-24T17:45:30.591Z,101072.81
2024-01-24T17:47:57.933Z,101075.31
2024-01-24T17:50:25.012Z,101083.03
2024-01-24T17:52:51.871Z,101086.44
2024-01-24T17:55:18.611Z,101089.78
2024-01-24T17:57:45.555Z,101092.34
2024-01-24T18:00:14.313Z,101092.28
2024-01-24T18:02:41.170Z,101098.28
2024-01-24T18:05:08.474Z,101092.22
2024-01-24T18:07:36.057Z,101098.16
2024-01-24T18:10:03.530Z,101100.69
2024-01-24T18:12:30.599Z,101100.66
2024-01-24T18:14:57.287Z,101099.72
2024-01-24T18:17:24.025Z,101107.44
2024-01-24T18:19:51.274Z,101106.50
2024-01-24T18:22:18.128Z,101117.69
2024-01-24T18:24:47.620Z,101130.59
2024-01-24T18:27:14.718Z,101127.13
2024-01-24T18:29:41.608Z,101128.81
2024-01-24T18:32:12.280Z,101134.84
2024-01-24T18:34:39.570Z,101123.59
2024-01-24T18:37:07.005Z,101126.16
2024-01-24T18:39:33.960Z,101134.69
2024-01-24T18:42:01.884Z,101137.22
2024-01-24T18:44:28.776Z,101135.44
2024-01-24T18:46:55.758Z,101140.59
2024-01-24T18:49:22.573Z,101137.94
2024-01-24T18:51:51.036Z,101148.28
2024-01-24T18:54:18.231Z,101150.78
2024-01-24T18:56:45.599Z,101155.94
2024-01-24T18:59:12.561Z,101142.94
2024-01-24T19:01:40.816Z,101151.50
2024-01-24T19:04:07.881Z,101144.59
2024-01-24T19:06:36.694Z,101146.28
2024-01-24T19:09:03.907Z,101162.59
2024-01-24T19:11:30.861Z,101157.34
2024-01-24T19:13:57.967Z,101155.56
2024-01-24T19:16:25.155Z,101145.13
2024-01-24T19:18:52.072Z,101159.72
2024-01-24T19:21:18.915Z,101168.28
2024-01-24T19:23:45.633Z,101174.22
2024-01-24T19:26:12.362Z,101177.69
2024-01-24T19:28:39.452Z,101173.34
2024-01-24T19:31:06.442Z,101180.19
2024-01-24T19:33:33.250Z,101182.72
2024-01-24T19:36:00.054Z,101185.28
2024-01-24T19:38:27.412Z,101189.56
2024-01-24T19:40:55.024Z,101202.47
2024-01-24T19:43:21.916Z,101203.22
2024-01-24T19:45:48.929Z,101205.84
2024-01-24T19:48:15.823Z,101211.75
2024-01-24T19:50:42.623Z,101215.94
2024-01-24T19:53:12.939Z,101226.09
2024-01-24T19:55:44.339Z,101223.31
2024-01-24T19:58:11.105Z,101222.22
2024-01-24T20:00:37.988Z,101221.94
2024-01-24T20:03:05.066Z,101226.88
2024-01-24T20:05:31.833Z,101229.16
2024-01-24T20:07:58.630Z,101246.09
2024-01-24T20:10:25.846Z,101242.28
2024-01-24T20:12:52.612Z,101241.28
2024-01-24T20:15:22.217Z,101238.44
2024-01-24T20:17:49.299Z,101244.28
2024-01-24T20:20:16.723Z,101257.88
2024-01-24T20:22:43.761Z,101256.88
2024-01-24T20:25:10.854Z,101252.44
2024-01-24T20:27:37.731Z,101238.56
2024-01-24T20:30:05.163Z,101231.56
2024-01-24T20:32:31.951Z,101224.75
2024-01-24T20:34:59.092Z,101234.28
2024-01-24T20:37:25.870Z,101238.69
2024-01-24T20:39:53.159Z,101254.28
2024-01-24T20:42:28.382Z,101258.63
2024-01-24T20:44:58.645Z,101255.22
2024-01-24T20:47:26.407Z,101258.53
2024-01-24T20:49:55.798Z,101254.97
2024-01-24T20:52:22.848Z,101269.44
2024-01-24T20:54:50.204Z,101263.31
2024-01-24T20:57:17.330Z,101277.81
2024-01-24T20:59:44.342Z,101278.53
2024-01-24T21:02:12.021Z,101269.72
2024-01-24T21:04:39.064Z,101269.53
2024-01-24T21:07:07.596Z,101270.22
2024-01-24T21:09:34.914Z,101268.31
2024-01-24T21:12:01.754Z,101281.97
2024-01-24T21:14:29.153Z,101283.56
2024-01-24T21:16:55.935Z,101278.31
2024-01-24T21:19:25.748Z,101294.50
2024-01-24T21:21:53.153Z,101295.28
2024-01-24T21:24:20.101Z,101295.06
2024-01-24T21:26:48.184Z,101297.56
2024-01-24T21:29:15.255Z,101301.66
2024-01-24T21:31:48.017Z,101292.06
2024-01-24T21:34:16.022Z,101301.47
2024-01-24T21:36:48.099Z,101296.22
2024-01-24T21:39:16.330Z,101304.78
2024-01-24T21:41:44.745Z,101304.72
2024-01-24T21:44:11.508Z,101308.13
2024-01-24T21:46:38.224Z,101315.03
2024-01-24T21:49:05.030Z,101317.66
2024-01-24T21:51:32.135Z,101309.97
2024-01-24T21:53:59.054Z,101307.41
2024-01-24T21:56:25.953Z,101308.22
2024-01-24T21:58:56.320Z,101312.44
2024-01-24T22:01:25.743Z,101305.44
2024-01-24T22:03:52.689Z,101301.06
2024-01-24T22:06:19.476Z,101300.09
2024-01-24T22:08:46.283Z,101302.50
2024-01-24T22:11:15.000Z,101311.75
2024-01-24T22:13:41.711Z,101312.38
2024-01-24T22:16:08.508Z,101315.66
2024-01-24T22:18:40.960Z,101309.47
2024-01-24T22:21:14.244Z,101310.13
2024-01-24T22:23:41.016Z,101303.94
2024-01-24T22:26:07.716Z,101307.13
2024-01-24T22:28:34.388Z,101315.44
2024-01-24T22:31:01.333Z,101317.09
2024-01-24T22:33:28.280Z,101311.81
2024-01-24T22:35:55.176Z,101308.38
2024-01-24T22:38:21.893Z,101310.13
2024-01-24T22:40:48.897Z,101311.00
2024-01-24T22:43:15.799Z,101316.31
2024-01-24T22:45:46.395Z,101308.88
2024-01-24T22:48:13.780Z,101317.72
2024-01-24T22:50:41.527Z,101312.81
2024-01-24T22:53:08.610Z,101311.28
2024-01-24T22:55:35.467Z,101313.13
2024-01-24T22:58:03.622Z,101308.88
2024-01-24T23:00:30.584Z,101304.53
2024-01-24T23:02:57.527Z,101307.94
2024-01-24T23:05:24.318Z,101311.22
2024-01-24T23:07:51.136Z,101307.59
2024-01-24T23:10:18.479Z,101297.97
2024-01-24T23:12:45.328Z,101292.69
2024-01-24T23:15:12.105Z,101301.16
2024-01-24T23:17:38.854Z,101295.97
2024-01-24T23:20:08.082Z,101298.47
2024-01-24T23:22:35.353Z,101306.19
2024-01-24T23:25:02.236Z,101315.63
2024-01-24T23:27:28.932Z,101325.13
2024-01-24T23:29:55.671Z,101332.03
2024-01-24T23:32:24.115Z,101345.72
2024-01-24T23:34:50.945Z,101332.84
2024-01-24T23:37:18.247Z,101334.50
2024-01-24T23:39:45.380Z,101327.59
2024-01-24T23:42:12.312Z,101322.44
2024-01-24T23:44:40.115Z,101319.94
2024-01-24T23:47:07.421Z,101321.63
2024-01-24T23:49:34.656Z,101328.41
2024-01-24T23:52:01.775Z,101342.03
2024-01-24T23:54:28.720Z,101345.44
2024-01-24T23:56:55.431Z,101344.72
2024-01-24T23:59:22.223Z,101335.38
